sensor_id;sensor_type;location;lat;lon;timestamp;pressure;altitude;pressure_sealevel;temperature;humidity
19845;BME280;10083;51.038;7.012;2023-05-08T00:01:25;153009.91;;;16.48;nan
19845;BME280;10083;51.038;7.012;2023-05-08T00:04:04;153015.16;;;16.50;nan
19845;BME280;10083;51.038;7.012;2023-05-08T00:06:31;153004.63;;;16.46;nan
19845;BME280;10083;51.038;7.012;2023-05-08T00:08:59;153009.91;;;16.48;nan
19845;BME280;10083;51.038;7.012;2023-05-08T00:11:28;153024.38;;;16.54;nan
19845;BME280;10083;51.038;7.012;2023-05-08T00:13:55;153009.91;;;16.48;nan
19845;BME280;10083;51.038;7.012;2023-05-08T00:16:24;153007.25;;;16.47;nan
19845;BME280;10083;51.038;7.012;2023-05-08T00:18:51;152994.06;;;16.42;nan
19845;BME280;10083;51.038;7.012;2023-05-08T00:21:20;152995.41;;;16.43;nan
19845;BME280;10083;51.038;7.012;2023-05-08T00:23:50;152999.38;;;16.44;nan
19845;BME280;10083;51.038;7.012;2023-05-08T00:26:17;152999.38;;;16.44;nan
19845;BME280;10083;51.038;7.012;2023-05-08T00:28:47;153004.63;;;16.46;nan
19845;BME280;10083;51.038;7.012;2023-05-08T00:31:14;152999.38;;;16.44;nan
19845;BME280;10083;51.038;7.012;2023-05-08T00:33:43;152994.06;;;16.42;nan
19845;BME280;10083;51.038;7.012;2023-05-08T00:36:12;152961.13;;;16.29;nan
19845;BME280;10083;51.038;7.012;2023-05-08T00:38:40;152959.78;;;16.29;nan
19845;BME280;10083;51.038;7.012;2023-05-08T00:41:15;152950.56;;;16.25;nan
19845;BME280;10083;51.038;7.012;2023-05-08T00:43:42;152953.22;;;16.26;nan
19845;BME280;10083;51.038;7.012;2023-05-08T00:46:33;152955.81;;;16.27;nan
19845;BME280;10083;51.038;7.012;2023-05-08T00:49:17;152949.25;;;16.25;nan
19845;BME280;10083;51.038;7.012;2023-05-08T00:51:49;152954.53;;;16.27;nan
19845;BME280;10083;51.038;7.012;2023-05-08T00:54:31;152937.38;;;16.20;nan
19845;BME280;10083;51.038;7.012;2023-05-08T00:57:02;152925.50;;;16.16;nan
19845;BME280;10083;51.038;7.012;2023-05-08T00:59:40;152914.97;;;16.12;nan
19845;BME280;10083;51.038;7.012;2023-05-08T01:02:09;152916.28;;;16.12;nan
19845;BME280;10083;51.038;7.012;2023-05-08T01:08:19;152889.91;;;16.02;nan
19845;BME280;10083;51.038;7.012;2023-05-08T01:10:54;152874.13;;;15.96;nan
19845;BME280;10083;51.038;7.012;2023-05-08T01:13:42;152872.81;;;15.96;nan
19845;BME280;10083;51.038;7.012;2023-05-08T01:16:15;152875.47;;;15.97;nan
19845;BME280;10083;51.038;7.012;2023-05-08T01:21:59;152867.50;;;15.94;nan
19845;BME280;10083;51.038;7.012;2023-05-08T01:29:58;152858.28;;;15.90;nan
19845;BME280;10083;51.038;7.012;2023-05-08T01:32:34;152868.84;;;15.94;nan
19845;BME280;10083;51.038;7.012;2023-05-08T01:35:16;152862.28;;;15.92;nan
19845;BME280;10083;51.038;7.012;2023-05-08T01:38:06;152859.63;;;15.91;nan
19845;BME280;10083;51.038;7.012;2023-05-08T01:41:32;152863.59;;;15.92;nan
19845;BME280;10083;51.038;7.012;2023-05-08T01:47:27;152862.28;;;15.92;nan
19845;BME280;10083;51.038;7.012;2023-05-08T01:53:42;152856.97;;;15.90;nan
19845;BME280;10083;51.038;7.012;2023-05-08T02:00:15;152841.19;;;15.83;nan
19845;BME280;10083;51.038;7.012;2023-05-08T02:02:58;152851.72;;;15.88;nan
19845;BME280;10083;51.038;7.012;2023-05-08T02:05:27;152837.22;;;15.82;nan
19845;BME280;10083;51.038;7.012;2023-05-08T02:08:13;152824.03;;;15.77;nan
19845;BME280;10083;51.038;7.012;2023-05-08T02:10:44;152818.78;;;15.75;nan
19845;BME280;10083;51.038;7.012;2023-05-08T02:13:35;152830.59;;;15.79;nan
19845;BME280;10083;51.038;7.012;2023-05-08T02:16:19;152828.00;;;15.78;nan
19845;BME280;10083;51.038;7.012;2023-05-08T02:18:50;152829.31;;;15.79;nan
19845;BME280;10083;51.038;7.012;2023-05-08T02:21:39;152828.00;;;15.78;nan
19845;BME280;10083;51.038;7.012;2023-05-08T02:24:08;152838.53;;;15.82;nan
19845;BME280;10083;51.038;7.012;2023-05-08T02:26:55;152829.31;;;15.79;nan
19845;BME280;10083;51.038;7.012;2023-05-08T02:29:23;152820.06;;;15.75;nan
19845;BME280;10083;51.038;7.012;2023-05-08T02:31:51;152812.16;;;15.72;nan
19845;BME280;10083;51.038;7.012;2023-05-08T02:38:16;152820.06;;;15.75;nan
19845;BME280;10083;51.038;7.012;2023-05-08T02:40:48;152806.94;;;15.70;nan
19845;BME280;10083;51.038;7.012;2023-05-08T02:43:18;152804.28;;;15.69;nan
19845;BME280;10083;51.038;7.012;2023-05-08T02:46:07;152801.63;;;15.68;nan
19845;BME280;10083;51.038;7.012;2023-05-08T02:48:39;152792.41;;;15.65;nan
19845;BME280;10083;51.038;7.012;2023-05-08T02:51:21;152804.28;;;15.69;nan
19845;BME280;10083;51.038;7.012;2023-05-08T02:54:20;152791.09;;;15.64;nan
19845;BME280;10083;51.038;7.012;2023-05-08T02:56:56;152788.44;;;15.63;nan
19845;BME280;10083;51.038;7.012;2023-05-08T02:59:39;152796.34;;;15.66;nan
19845;BME280;10083;51.038;7.012;2023-05-08T03:02:17;152797.66;;;15.67;nan
19845;BME280;10083;51.038;7.012;2023-05-08T03:04:57;152809.53;;;15.71;nan
19845;BME280;10083;51.038;7.012;2023-05-08T03:07:27;152829.31;;;15.79;nan
19845;BME280;10083;51.038;7.012;2023-05-08T03:09:58;152896.53;;;16.05;nan
19845;BME280;10083;51.038;7.012;2023-05-08T03:12:29;152926.84;;;16.16;nan
19845;BME280;10083;51.038;7.012;2023-05-08T03:15:10;152949.25;;;16.25;nan
19845;BME280;10083;51.038;7.012;2023-05-08T03:17:38;152950.56;;;16.25;nan
19845;BME280;10083;51.038;7.012;2023-05-08T03:20:14;152946.59;;;16.24;nan
19845;BME280;10083;51.038;7.012;2023-05-08T03:22:43;152953.22;;;16.26;nan
19845;BME280;10083;51.038;7.012;2023-05-08T03:25:16;152912.31;;;16.11;nan
19845;BME280;10083;51.038;7.012;2023-05-08T03:27:44;152928.16;;;16.17;nan
19845;BME280;10083;51.038;7.012;2023-05-08T03:30:18;152891.25;;;16.03;nan
19845;BME280;10083;51.038;7.012;2023-05-08T03:32:57;152868.84;;;15.94;nan
19845;BME280;10083;51.038;7.012;2023-05-08T03:35:27;152838.53;;;15.82;nan
19845;BME280;10083;51.038;7.012;2023-05-08T03:37:54;152833.25;;;15.80;nan
19845;BME280;10083;51.038;7.012;2023-05-08T03:43:28;152859.63;;;15.91;nan
19845;BME280;10083;51.038;7.012;2023-05-08T03:45:59;152851.72;;;15.88;nan
19845;BME280;10083;51.038;7.012;2023-05-08T03:48:27;152820.06;;;15.75;nan
19845;BME280;10083;51.038;7.012;2023-05-08T03:51:10;152831.91;;;15.80;nan
19845;BME280;10083;51.038;7.012;2023-05-08T03:53:38;152854.31;;;15.89;nan
19845;BME280;10083;51.038;7.012;2023-05-08T03:56:18;152834.56;;;15.81;nan
19845;BME280;10083;51.038;7.012;2023-05-08T03:58:48;152801.63;;;15.68;nan
19845;BME280;10083;51.038;7.012;2023-05-08T04:01:47;152804.28;;;15.69;nan
19845;BME280;10083;51.038;7.012;2023-05-08T04:04:18;152788.44;;;15.63;nan
19845;BME280;10083;51.038;7.012;2023-05-08T04:06:55;152772.66;;;15.57;nan
19845;BME280;10083;51.038;7.012;2023-05-08T04:09:48;152760.81;;;15.53;nan
19845;BME280;10083;51.038;7.012;2023-05-08T04:12:38;152748.91;;;15.48;nan
19845;BME280;10083;51.038;7.012;2023-05-08T04:15:17;152739.63;;;15.45;nan
19845;BME280;10083;51.038;7.012;2023-05-08T04:17:49;152739.63;;;15.45;nan
19845;BME280;10083;51.038;7.012;2023-05-08T04:20:26;152738.38;;;15.44;nan
19845;BME280;10083;51.038;7.012;2023-05-08T04:22:56;152725.19;;;15.39;nan
19845;BME280;10083;51.038;7.012;2023-05-08T04:25:28;152748.91;;;15.48;nan
19845;BME280;10083;51.038;7.012;2023-05-08T04:27:57;152735.72;;;15.43;nan
19845;BME280;10083;51.038;7.012;2023-05-08T04:30:39;152723.84;;;15.38;nan
19845;BME280;10083;51.038;7.012;2023-05-08T04:33:08;152727.81;;;15.40;nan
19845;BME280;10083;51.038;7.012;2023-05-08T04:36:10;152717.25;;;15.36;nan
19845;BME280;10083;51.038;7.012;2023-05-08T04:38:39;152714.66;;;15.35;nan
19845;BME280;10083;51.038;7.012;2023-05-08T04:41:25;152717.25;;;15.36;nan
19845;BME280;10083;51.038;7.012;2023-05-08T04:43:52;152700.13;;;15.29;nan
19845;BME280;10083;51.038;7.012;2023-05-08T04:46:31;152681.72;;;15.22;nan
19845;BME280;10083;51.038;7.012;2023-05-08T04:49:00;152704.09;;;15.31;nan
19845;BME280;10083;51.038;7.012;2023-05-08T04:51:31;152714.66;;;15.35;nan
19845;BME280;10083;51.038;7.012;2023-05-08T04:53:58;152708.03;;;15.32;nan
19845;BME280;10083;51.038;7.012;2023-05-08T04:56:27;152713.31;;;15.34;nan
19845;BME280;10083;51.038;7.012;2023-05-08T04:58:54;152706.72;;;15.32;nan
19845;BME280;10083;51.038;7.012;2023-05-08T05:01:50;152712.00;;;15.34;nan
19845;BME280;10083;51.038;7.012;2023-05-08T05:04:20;152731.75;;;15.42;nan
19845;BME280;10083;51.038;7.012;2023-05-08T05:06:59;152742.28;;;15.46;nan
19845;BME280;10083;51.038;7.012;2023-05-08T05:09:28;152756.84;;;15.51;nan
19845;BME280;10083;51.038;7.012;2023-05-08T05:15:14;152752.81;;;15.50;nan
19845;BME280;10083;51.038;7.012;2023-05-08T05:21:59;152750.22;;;15.49;nan
19845;BME280;10083;51.038;7.012;2023-05-08T05:24:28;152735.72;;;15.43;nan
19845;BME280;10083;51.038;7.012;2023-05-08T05:26:56;152752.81;;;15.50;nan
19845;BME280;10083;51.038;7.012;2023-05-08T05:32:46;152780.56;;;15.60;nan
19845;BME280;10083;51.038;7.012;2023-05-08T05:39:10;152891.25;;;16.03;nan
19845;BME280;10083;51.038;7.012;2023-05-08T05:41:38;152893.88;;;16.04;nan
19845;BME280;10083;51.038;7.012;2023-05-08T05:47:30;152883.34;;;16.00;nan
19845;BME280;10083;51.038;7.012;2023-05-08T05:50:05;152878.06;;;15.98;nan
19845;BME280;10083;51.038;7.012;2023-05-08T05:52:33;152913.66;;;16.11;nan
19845;BME280;10083;51.038;7.012;2023-05-08T05:55:06;152938.69;;;16.21;nan
19845;BME280;10083;51.038;7.012;2023-05-08T05:57:33;152930.81;;;16.18;nan
19845;BME280;10083;51.038;7.012;2023-05-08T06:00:27;152938.69;;;16.21;nan
19845;BME280;10083;51.038;7.012;2023-05-08T06:02:56;152934.72;;;16.19;nan
19845;BME280;10083;51.038;7.012;2023-05-08T06:05:23;152980.88;;;16.37;nan
19845;BME280;10083;51.038;7.012;2023-05-08T06:07:50;152955.81;;;16.27;nan
19845;BME280;10083;51.038;7.012;2023-05-08T06:10:38;152971.66;;;16.34;nan
19845;BME280;10083;51.038;7.012;2023-05-08T06:13:06;152966.34;;;16.32;nan
19845;BME280;10083;51.038;7.012;2023-05-08T06:15:33;152978.22;;;16.36;nan
19845;BME280;10083;51.038;7.012;2023-05-08T06:18:00;152961.13;;;16.29;nan
19845;BME280;10083;51.038;7.012;2023-05-08T06:21:02;153031.00;;;16.56;nan
19845;BME280;10083;51.038;7.012;2023-05-08T06:23:29;152995.41;;;16.43;nan
19845;BME280;10083;51.038;7.012;2023-05-08T06:25:58;152995.41;;;16.43;nan
19845;BME280;10083;51.038;7.012;2023-05-08T06:28:25;152988.81;;;16.40;nan
19845;BME280;10083;51.038;7.012;2023-05-08T06:34:08;153000.66;;;16.45;nan
19845;BME280;10083;51.038;7.012;2023-05-08T06:36:59;153015.16;;;16.50;nan
19845;BME280;10083;51.038;7.012;2023-05-08T06:39:26;153019.13;;;16.52;nan
19845;BME280;10083;51.038;7.012;2023-05-08T06:45:01;153012.50;;;16.49;nan
19845;BME280;10083;51.038;7.012;2023-05-08T06:50:39;153001.97;;;16.45;nan
19845;BME280;10083;51.038;7.012;2023-05-08T06:53:31;153074.56;;;16.73;nan
19845;BME280;10083;51.038;7.012;2023-05-08T06:55:58;153083.78;;;16.77;nan
19845;BME280;10083;51.038;7.012;2023-05-08T06:59:01;153116.75;;;16.89;nan
19845;BME280;10083;51.038;7.012;2023-05-08T07:01:30;153086.44;;;16.78;nan
19845;BME280;10083;51.038;7.012;2023-05-08T07:04:16;153069.25;;;16.71;nan
19845;BME280;10083;51.038;7.012;2023-05-08T07:06:43;153058.72;;;16.67;nan
19845;BME280;10083;51.038;7.012;2023-05-08T07:12:30;152970.34;;;16.33;nan
19845;BME280;10083;51.038;7.012;2023-05-08T07:15:13;152984.84;;;16.39;nan
19845;BME280;10083;51.038;7.012;2023-05-08T07:21:18;152983.53;;;16.38;nan
19845;BME280;10083;51.038;7.012;2023-05-08T07:27:43;153115.44;;;16.89;nan
19845;BME280;10083;51.038;7.012;2023-05-08T07:34:07;153218.31;;;17.28;nan
19845;BME280;10083;51.038;7.012;2023-05-08T07:39:41;153223.63;;;17.30;nan
19845;BME280;10083;51.038;7.012;2023-05-08T07:46:39;153236.84;;;17.35;nan
19845;BME280;10083;51.038;7.012;2023-05-08T07:49:06;153374.16;;;17.88;nan
19845;BME280;10083;51.038;7.012;2023-05-08T07:51:38;153417.69;;;18.04;nan
19845;BME280;10083;51.038;7.012;2023-05-08T07:57:21;153622.44;;;18.83;nan
19845;BME280;10083;51.038;7.012;2023-05-08T08:04:14;153566.97;;;18.62;nan
19845;BME280;10083;51.038;7.012;2023-05-08T08:06:41;153644.91;;;18.91;nan
19845;BME280;10083;51.038;7.012;2023-05-08T08:09:18;153646.25;;;18.92;nan
19845;BME280;10083;51.038;7.012;2023-05-08T08:11:47;153703.06;;;19.14;nan
19845;BME280;10083;51.038;7.012;2023-05-08T08:18:06;153712.28;;;19.17;nan
19845;BME280;10083;51.038;7.012;2023-05-08T08:24:56;153638.28;;;18.89;nan
19845;BME280;10083;51.038;7.012;2023-05-08T08:27:24;153609.22;;;18.78;nan
19845;BME280;10083;51.038;7.012;2023-05-08T08:29:51;153744.00;;;19.29;nan
19845;BME280;10083;51.038;7.012;2023-05-08T08:35:43;153436.66;;;19.48;nan
19845;BME280;10083;51.038;7.012;2023-05-08T08:38:38;152692.81;;;19.32;nan
19845;BME280;10083;51.038;7.012;2023-05-08T08:41:05;150872.41;;;19.41;nan
19845;BME280;10083;51.038;7.012;2023-05-08T08:47:28;145332.63;;;19.92;nan
19845;BME280;10083;51.038;7.012;2023-05-08T08:50:13;139645.56;;;19.77;nan
19845;BME280;10083;51.038;7.012;2023-05-08T08:52:51;134776.97;;;19.44;nan
19845;BME280;10083;51.038;7.012;2023-05-08T08:55:26;132915.63;;;19.69;nan
19845;BME280;10083;51.038;7.012;2023-05-08T08:58:11;130635.56;;;19.76;nan
19845;BME280;10083;51.038;7.012;2023-05-08T09:00:39;129132.31;;;20.25;nan
19845;BME280;10083;51.038;7.012;2023-05-08T09:05:47;125124.75;;;20.10;nan
19845;BME280;10083;51.038;7.012;2023-05-08T09:08:17;123572.22;;;20.02;nan
19845;BME280;10083;51.038;7.012;2023-05-08T09:10:54;121959.78;;;19.55;nan
19845;BME280;10083;51.038;7.012;2023-05-08T09:13:21;121492.53;;;19.64;nan
19845;BME280;10083;51.038;7.012;2023-05-08T09:16:23;121417.44;;;19.85;nan
19845;BME280;10083;51.038;7.012;2023-05-08T09:18:50;120829.69;;;19.67;nan
19845;BME280;10083;51.038;7.012;2023-05-08T09:21:18;120375.13;;;19.58;nan
19845;BME280;10083;51.038;7.012;2023-05-08T09:23:55;120143.97;;;19.55;nan
19845;BME280;10083;51.038;7.012;2023-05-08T09:26:27;119876.34;;;19.36;nan
19845;BME280;10083;51.038;7.012;2023-05-08T09:29:10;119862.97;;;19.33;nan
19845;BME280;10083;51.038;7.012;2023-05-08T09:31:44;119784.41;;;19.28;nan
19845;BME280;10083;51.038;7.012;2023-05-08T09:34:36;119706.78;;;19.34;nan
19845;BME280;10083;51.038;7.012;2023-05-08T09:37:11;119273.19;;;19.05;nan
19845;BME280;10083;51.038;7.012;2023-05-08T09:39:42;119519.47;;;19.31;nan
19845;BME280;10083;51.038;7.012;2023-05-08T09:42:11;119443.72;;;19.30;nan
19845;BME280;10083;51.038;7.012;2023-05-08T09:44:57;119351.75;;;19.37;nan
19845;BME280;10083;51.038;7.012;2023-05-08T09:47:26;119031.44;;;19.32;nan
19845;BME280;10083;51.038;7.012;2023-05-08T09:50:21;118686.00;;;19.37;nan
19845;BME280;10083;51.038;7.012;2023-05-08T09:52:49;118321.50;;;19.13;nan
19845;BME280;10083;51.038;7.012;2023-05-08T10:02:09;117994.31;;;19.13;nan
19845;BME280;10083;51.038;7.012;2023-05-08T10:04:41;118142.84;;;19.23;nan
19845;BME280;10083;51.038;7.012;2023-05-08T10:07:08;118350.16;;;19.31;nan
19845;BME280;10083;51.038;7.012;2023-05-08T10:09:36;118473.56;;;19.34;nan
19845;BME280;10083;51.038;7.012;2023-05-08T10:12:07;118447.00;;;19.46;nan
19845;BME280;10083;51.038;7.012;2023-05-08T10:14:34;118485.91;;;19.49;nan
19845;BME280;10083;51.038;7.012;2023-05-08T10:17:06;118484.88;;;19.48;nan
19845;BME280;10083;51.038;7.012;2023-05-08T10:19:44;118595.09;;;19.69;nan
19845;BME280;10083;51.038;7.012;2023-05-08T10:22:14;118364.44;;;19.38;nan
19845;BME280;10083;51.038;7.012;2023-05-08T10:24:43;118868.44;;;19.78;nan
19845;BME280;10083;51.038;7.012;2023-05-08T10:27:18;119126.59;;;19.93;nan
19845;BME280;10083;51.038;7.012;2023-05-08T10:29:51;119084.84;;;19.81;nan
19845;BME280;10083;51.038;7.012;2023-05-08T10:32:22;119302.66;;;19.86;nan
19845;BME280;10083;51.038;7.012;2023-05-08T10:34:52;119424.72;;;20.02;nan
19845;BME280;10083;51.038;7.012;2023-05-08T10:37:19;118958.38;;;19.58;nan
19845;BME280;10083;51.038;7.012;2023-05-08T10:39:48;119017.50;;;19.70;nan
19845;BME280;10083;51.038;7.012;2023-05-08T10:42:16;119086.13;;;19.75;nan
19845;BME280;10083;51.038;7.012;2023-05-08T10:44:45;119098.88;;;19.52;nan
19845;BME280;10083;51.038;7.012;2023-05-08T10:47:20;119285.59;;;19.61;nan
19845;BME280;10083;51.038;7.012;2023-05-08T10:49:55;119275.72;;;19.61;nan
19845;BME280;10083;51.038;7.012;2023-05-08T10:52:30;119205.75;;;19.58;nan
19845;BME280;10083;51.038;7.012;2023-05-08T10:55:13;119327.69;;;19.69;nan
19845;BME280;10083;51.038;7.012;2023-05-08T11:01:12;118873.19;;;19.32;nan
19845;BME280;10083;51.038;7.012;2023-05-08T11:03:44;119264.38;;;19.56;nan
19845;BME280;10083;51.038;7.012;2023-05-08T11:06:12;119409.81;;;19.63;nan
19845;BME280;10083;51.038;7.012;2023-05-08T11:08:45;119202.03;;;19.38;nan
19845;BME280;10083;51.038;7.012;2023-05-08T11:11:19;119268.38;;;19.50;nan
19845;BME280;10083;51.038;7.012;2023-05-08T11:13:54;119221.03;;;19.53;nan
19845;BME280;10083;51.038;7.012;2023-05-08T11:19:37;119386.78;;;19.50;nan
19845;BME280;10083;51.038;7.012;2023-05-08T11:22:27;119508.56;;;19.50;nan
19845;BME280;10083;51.038;7.012;2023-05-08T11:24:59;119406.31;;;19.37;nan
19845;BME280;10083;51.038;7.012;2023-05-08T11:27:31;119442.09;;;19.16;nan
19845;BME280;10083;51.038;7.012;2023-05-08T11:30:24;119673.22;;;19.27;nan
19845;BME280;10083;51.038;7.012;2023-05-08T11:33:30;119615.78;;;19.05;nan
19845;BME280;10083;51.038;7.012;2023-05-08T11:36:12;120001.09;;;19.33;nan
19845;BME280;10083;51.038;7.012;2023-05-08T11:39:07;120146.13;;;19.34;nan
19845;BME280;10083;51.038;7.012;2023-05-08T11:41:37;120204.53;;;19.03;nan
19845;BME280;10083;51.038;7.012;2023-05-08T11:44:16;120715.22;;;19.09;nan
19845;BME280;10083;51.038;7.012;2023-05-08T11:46:49;120961.38;;;19.08;nan
19845;BME280;10083;51.038;7.012;2023-05-08T11:49:25;121282.38;;;19.37;nan
19845;BME280;10083;51.038;7.012;2023-05-08T11:51:59;121188.06;;;19.42;nan
19845;BME280;10083;51.038;7.012;2023-05-08T11:54:29;121197.00;;;19.58;nan
19845;BME280;10083;51.038;7.012;2023-05-08T11:56:57;121165.44;;;19.63;nan
19845;BME280;10083;51.038;7.012;2023-05-08T11:59:33;120617.56;;;19.25;nan
19845;BME280;10083;51.038;7.012;2023-05-08T12:02:01;120842.59;;;19.47;nan
19845;BME280;10083;51.038;7.012;2023-05-08T12:04:29;120777.63;;;19.35;nan
19845;BME280;10083;51.038;7.012;2023-05-08T12:07:02;121103.34;;;19.55;nan
19845;BME280;10083;51.038;7.012;2023-05-08T12:09:30;121631.16;;;19.19;nan
19845;BME280;10083;51.038;7.012;2023-05-08T12:11:58;122422.47;;;18.99;nan
19845;BME280;10083;51.038;7.012;2023-05-08T12:14:27;123393.69;;;18.86;nan
19845;BME280;10083;51.038;7.012;2023-05-08T12:16:55;127472.22;;;19.13;nan
19845;BME280;10083;51.038;7.012;2023-05-08T12:19:23;129829.97;;;19.83;nan
19845;BME280;10083;51.038;7.012;2023-05-08T12:21:50;130577.75;;;19.79;nan
19845;BME280;10083;51.038;7.012;2023-05-08T12:24:21;130731.72;;;19.55;nan
19845;BME280;10083;51.038;7.012;2023-05-08T12:26:53;131277.72;;;19.58;nan
19845;BME280;10083;51.038;7.012;2023-05-08T12:29:22;131716.03;;;19.55;nan
19845;BME280;10083;51.038;7.012;2023-05-08T12:31:54;131549.75;;;18.94;nan
19845;BME280;10083;51.038;7.012;2023-05-08T12:34:23;132859.22;;;19.36;nan
19845;BME280;10083;51.038;7.012;2023-05-08T12:37:01;133516.16;;;19.30;nan
19845;BME280;10083;51.038;7.012;2023-05-08T12:39:48;133683.31;;;19.17;nan
19845;BME280;10083;51.038;7.012;2023-05-08T12:42:47;133846.34;;;18.97;nan
19845;BME280;10083;51.038;7.012;2023-05-08T12:45:18;134185.00;;;18.82;nan
19845;BME280;10083;51.038;7.012;2023-05-08T12:47:50;134616.25;;;18.78;nan
19845;BME280;10083;51.038;7.012;2023-05-08T12:50:33;134844.53;;;18.59;nan
19845;BME280;10083;51.038;7.012;2023-05-08T12:53:02;135445.50;;;18.68;nan
19845;BME280;10083;51.038;7.012;2023-05-08T12:55:37;135897.44;;;18.60;nan
19845;BME280;10083;51.038;7.012;2023-05-08T12:58:16;136285.56;;;18.53;nan
19845;BME280;10083;51.038;7.012;2023-05-08T13:00:48;136764.53;;;18.61;nan
19845;BME280;10083;51.038;7.012;2023-05-08T13:03:21;137013.63;;;18.42;nan
19845;BME280;10083;51.038;7.012;2023-05-08T13:05:51;137300.41;;;18.17;nan
19845;BME280;10083;51.038;7.012;2023-05-08T13:08:19;138120.50;;;18.23;nan
19845;BME280;10083;51.038;7.012;2023-05-08T13:10:49;138956.59;;;18.30;nan
19845;BME280;10083;51.038;7.012;2023-05-08T13:13:21;139108.75;;;18.01;nan
19845;BME280;10083;51.038;7.012;2023-05-08T13:15:52;139677.47;;;18.02;nan
19845;BME280;10083;51.038;7.012;2023-05-08T13:18:23;140641.88;;;18.07;nan
19845;BME280;10083;51.038;7.012;2023-05-08T13:20:51;141391.91;;;18.12;nan
19845;BME280;10083;51.038;7.012;2023-05-08T13:23:18;141950.38;;;18.07;nan
19845;BME280;10083;51.038;7.012;2023-05-08T13:25:45;142600.53;;;18.07;nan
19845;BME280;10083;51.038;7.012;2023-05-08T13:28:15;143561.78;;;18.23;nan
19845;BME280;10083;51.038;7.012;2023-05-08T13:30:44;144425.63;;;18.31;nan
19845;BME280;10083;51.038;7.012;2023-05-08T13:33:12;144622.94;;;18.09;nan
19845;BME280;10083;51.038;7.012;2023-05-08T13:35:40;145321.00;;;18.23;nan
19845;BME280;10083;51.038;7.012;2023-05-08T13:38:13;145806.28;;;18.29;nan
19845;BME280;10083;51.038;7.012;2023-05-08T13:40:40;146120.44;;;18.34;nan
19845;BME280;10083;51.038;7.012;2023-05-08T13:43:20;146572.75;;;18.47;nan
19845;BME280;10083;51.038;7.012;2023-05-08T13:45:48;147275.47;;;18.71;nan
19845;BME280;10083;51.038;7.012;2023-05-08T13:48:17;147338.63;;;18.78;nan
19845;BME280;10083;51.038;7.012;2023-05-08T13:50:45;146805.81;;;18.73;nan
19845;BME280;10083;51.038;7.012;2023-05-08T13:53:13;146360.22;;;18.90;nan
19845;BME280;10083;51.038;7.012;2023-05-08T13:55:59;145239.25;;;18.73;nan
19845;BME280;10083;51.038;7.012;2023-05-08T13:58:28;144834.78;;;18.95;nan
19845;BME280;10083;51.038;7.012;2023-05-08T14:00:59;144364.78;;;19.09;nan
19845;BME280;10083;51.038;7.012;2023-05-08T14:03:29;143949.28;;;19.34;nan
19845;BME280;10083;51.038;7.012;2023-05-08T14:05:59;142807.31;;;19.21;nan
19845;BME280;10083;51.038;7.012;2023-05-08T14:08:26;141950.88;;;19.27;nan
19845;BME280;10083;51.038;7.012;2023-05-08T14:10:57;141402.81;;;19.53;nan
19845;BME280;10083;51.038;7.012;2023-05-08T14:13:30;140671.53;;;19.66;nan
19845;BME280;10083;51.038;7.012;2023-05-08T14:16:03;139316.53;;;19.57;nan
19845;BME280;10083;51.038;7.012;2023-05-08T14:18:43;138352.53;;;19.76;nan
19845;BME280;10083;51.038;7.012;2023-05-08T14:21:27;137568.72;;;20.11;nan
19845;BME280;10083;51.038;7.012;2023-05-08T14:23:56;136315.69;;;20.13;nan
19845;BME280;10083;51.038;7.012;2023-05-08T14:26:28;134727.75;;;20.22;nan
19845;BME280;10083;51.038;7.012;2023-05-08T14:28:57;133387.75;;;20.42;nan
19845;BME280;10083;51.038;7.012;2023-05-08T14:31:29;131768.88;;;20.50;nan
19845;BME280;10083;51.038;7.012;2023-05-08T14:33:59;126784.34;;;20.63;nan
19845;BME280;10083;51.038;7.012;2023-05-08T14:36:27;125646.03;;;21.09;nan
19845;BME280;10083;51.038;7.012;2023-05-08T14:39:11;123664.09;;;20.91;nan
19845;BME280;10083;51.038;7.012;2023-05-08T14:41:41;122260.94;;;21.15;nan
19845;BME280;10083;51.038;7.012;2023-05-08T14:44:24;120865.34;;;21.39;nan
19845;BME280;10083;51.038;7.012;2023-05-08T14:46:59;120331.19;;;22.17;nan
19845;BME280;10083;51.038;7.012;2023-05-08T14:49:36;119143.44;;;22.50;nan
19845;BME280;10083;51.038;7.012;2023-05-08T14:52:09;118470.66;;;23.54;nan
19845;BME280;10083;51.038;7.012;2023-05-08T14:55:16;117419.13;;;26.09;nan
19845;BME280;10083;51.038;7.012;2023-05-08T14:59:07;113099.53;;;25.77;nan
19845;BME280;10083;51.038;7.012;2023-05-08T15:01:43;110518.91;;;25.32;nan
19845;BME280;10083;51.038;7.012;2023-05-08T15:04:25;109032.34;;;23.75;nan
19845;BME280;10083;51.038;7.012;2023-05-08T15:06:52;108851.56;;;23.09;nan
19845;BME280;10083;51.038;7.012;2023-05-08T15:09:20;109025.69;;;23.22;nan
19845;BME280;10083;51.038;7.012;2023-05-08T15:11:50;109508.91;;;24.76;nan
19845;BME280;10083;51.038;7.012;2023-05-08T15:14:17;108943.44;;;24.06;nan
19845;BME280;10083;51.038;7.012;2023-05-08T15:16:56;108863.94;;;24.43;nan
19845;BME280;10083;51.038;7.012;2023-05-08T15:19:24;108511.78;;;24.01;nan
19845;BME280;10083;51.038;7.012;2023-05-08T15:21:51;108698.41;;;24.23;nan
19845;BME280;10083;51.038;7.012;2023-05-08T15:24:23;108868.75;;;25.06;nan
19845;BME280;10083;51.038;7.012;2023-05-08T15:27:15;108471.91;;;25.66;nan
19845;BME280;10083;51.038;7.012;2023-05-08T15:29:43;107552.13;;;25.73;nan
19845;BME280;10083;51.038;7.012;2023-05-08T15:32:12;107157.53;;;25.34;nan
19845;BME280;10083;51.038;7.012;2023-05-08T15:34:41;106937.44;;;24.51;nan
19845;BME280;10083;51.038;7.012;2023-05-08T15:37:08;106961.53;;;24.18;nan
19845;BME280;10083;51.038;7.012;2023-05-08T15:39:36;107159.06;;;24.25;nan
19845;BME280;10083;51.038;7.012;2023-05-08T15:42:10;107245.72;;;24.17;nan
19845;BME280;10083;51.038;7.012;2023-05-08T15:44:42;107372.56;;;24.12;nan
19845;BME280;10083;51.038;7.012;2023-05-08T15:47:29;107485.16;;;24.52;nan